Sentinel — WBN6510 — position and weather

sailwx.info

Track history (hours):
 
Tides and Currents Weather Stations Pressure Air Temp Water Temp Dewpoint Dewpoint Depression Visibility Wind Speed Wind Dir Waves Ship Positions

Sentinel

Owner: Crowley Puerto Rico Services, Inc., Jacksonville, FL. More information available from US FCC via Universal Licensing System and Coast Guard Vessel Documentation Center.

Last reported at 2018-Jan-06 17:28 UTC. Time now 2018-Jan-18 07:58 UTC.
Position N 25°30' W 079°57'.
Warning: this ship's position is 11 days out of date.

Length 40 m; draft 5.5 m.

Type: Towing. MMSI: 366766980.

Date/timePositionNaut miles runAvg speedWind from/ knotsBaromVisibWave heightAir tempDewpointWater temp
2018-Jan-06 17:28N 25°30' W 079°57'4 9.8
2018-Jan-06 17:00N 25°34' W 079°58'4 8.7
2018-Jan-06 16:31N 25°39' W 079°58'510.3
2018-Jan-06 16:00N 25°44' W 079°59'510.6
2018-Jan-06 15:31N 25°49' W 080°01'510.9
2018-Jan-06 15:01N 25°54' W 079°60'510.6
2018-Jan-06 14:30N 25°60' W 079°59'510.6
2018-Jan-06 14:00N 26°05' W 079°59'510.8
2018-Jan-06 13:30N 26°10' W 079°59'510.9
2018-Jan-06 13:00N 26°16' W 079°59'1910.3
2018-Jan-06 11:09N 26°35' W 079°58'1 9.8
2018-Jan-06 11:00N 26°36' W 079°58'510.2
2018-Jan-06 10:31N 26°41' W 079°58'611.4
2018-Jan-06 10:01N 26°47' W 079°58'510.9
2018-Jan-06 09:31N 26°52' W 079°59'510.3
2018-Jan-06 09:00N 26°58' W 079°60'510.2
2018-Jan-06 08:31N 27°03' W 079°60'  
Track history (hours):
 
Tides and Currents Weather Stations Pressure Air Temp Water Temp Dewpoint Dewpoint Depression Visibility Wind Speed Wind Dir Waves Ship Positions

Sentinel

Owner: Crowley Puerto Rico Services, Inc., Jacksonville, FL. More information available from US FCC via Universal Licensing System and Coast Guard Vessel Documentation Center.

Last reported at 2018-Jan-06 17:28 UTC. Time now 2018-Jan-18 07:58 UTC.
Position N 25°30' W 079°57'.
Warning: this ship's position is 11 days out of date.

Length 40 m; draft 5.5 m.

Type: Towing. MMSI: 366766980.

Date/timePositionNaut miles runAvg speedWind from/ knotsBaromVisibWave heightAir tempDewpointWater temp
2018-Jan-06 17:28N 25°30' W 079°57'4 9.8
2018-Jan-06 17:00N 25°34' W 079°58'4 8.7
2018-Jan-06 16:31N 25°39' W 079°58'510.3
2018-Jan-06 16:00N 25°44' W 079°59'510.6
2018-Jan-06 15:31N 25°49' W 080°01'510.9
2018-Jan-06 15:01N 25°54' W 079°60'510.6
2018-Jan-06 14:30N 25°60' W 079°59'510.6
2018-Jan-06 14:00N 26°05' W 079°59'510.8
2018-Jan-06 13:30N 26°10' W 079°59'510.9
2018-Jan-06 13:00N 26°16' W 079°59'1910.3
2018-Jan-06 11:09N 26°35' W 079°58'1 9.8
2018-Jan-06 11:00N 26°36' W 079°58'510.2
2018-Jan-06 10:31N 26°41' W 079°58'611.4
2018-Jan-06 10:01N 26°47' W 079°58'510.9
2018-Jan-06 09:31N 26°52' W 079°59'510.3
2018-Jan-06 09:00N 26°58' W 079°60'510.2
2018-Jan-06 08:31N 27°03' W 079°60'  

Dump ship's entire track history